»·PEaware :: N9223R KBOI-KBOI

N9223R :: KBOI-KBOI

FLIGHT INFORMATION

Flight Status: Arrived
Operator: Privately registered:
United States
More flights under this callsign
Pilot: Thomas S. (7177)
Aircraft: PIPER PA-34 SENECA
(PA34)
More flights by this aircraft type
Origin: KBOI Boise Air Terminal/Gowen
United States
Destination: KBOI Boise Air Terminal/Gowen
United States
More flights between these airports :: More routes between these airports
Route: DIRECT
File this flight plan on PilotEdge
Remarks:
Altitude:
(Current/Filed)
7,000ft
Speed:
(Current/Filed)
125kts
Departed: 01-Oct-20 01:42 PM
Arrived: 01-Oct-20 02:03 PM
Distance/Time
Traveled:
1nm/0:21
Distance/Time
To Go:
Arrived

Flight Plot

Page will automatically refresh every two minutes.

Flight plan parsing failed; only flown route is shown


Map Options




Map Legend


Flown Route
Filed Route
Departure Airport
Arrival Airport
Navaid (VOR, NDB)
Fix

Horizontal Profiles

Position Reports

Time Latitude Longitude Heading Altitude Ground
Speed
01-Oct-20 13:16 43.564374 -116.236836 264 2822ft 0kts
01-Oct-20 13:17 43.564374 -116.236836 264 2822ft 0kts
01-Oct-20 13:18 43.564374 -116.236836 264 2822ft 0kts
01-Oct-20 13:19 43.564374 -116.236836 264 2822ft 0kts
01-Oct-20 13:20 43.564374 -116.236836 264 2822ft 0kts
01-Oct-20 13:21 43.564374 -116.236836 264 2822ft 0kts
01-Oct-20 13:21 43.564374 -116.236836 264 2822ft 0kts
01-Oct-20 13:23 43.564374 -116.236836 264 2822ft 0kts
01-Oct-20 13:24 43.564374 -116.236836 264 2822ft 0kts
01-Oct-20 13:25 43.564374 -116.236836 264 2822ft 0kts
01-Oct-20 13:25 43.564374 -116.236836 264 2822ft 0kts
01-Oct-20 13:26 43.564374 -116.236836 264 2822ft 0kts
01-Oct-20 13:28 43.564374 -116.236836 264 2822ft 0kts
01-Oct-20 13:28 43.564389 -116.237048 296 2821ft 5kts
01-Oct-20 13:29 43.564836 -116.234703 80 2827ft 16kts
01-Oct-20 13:30 43.563607 -116.227712 115 2838ft 21kts
01-Oct-20 13:31 43.560845 -116.219604 115 2846ft 24kts
01-Oct-20 13:32 43.558238 -116.212040 116 2852ft 15kts
01-Oct-20 13:33 43.557842 -116.210280 59 2853ft 0kts
01-Oct-20 13:34 43.557842 -116.210280 59 2853ft 0kts
01-Oct-20 13:35 43.557842 -116.210280 59 2853ft 0kts
01-Oct-20 13:36 43.557842 -116.210280 59 2853ft 0kts
01-Oct-20 13:37 43.557842 -116.210280 59 2853ft 0kts
01-Oct-20 13:38 43.557842 -116.210280 59 2853ft 0kts
01-Oct-20 13:39 43.557842 -116.210280 59 2853ft 0kts
01-Oct-20 13:40 43.559099 -116.210395 300 2854ft 32kts
01-Oct-20 13:41 43.570835 -116.245127 293 3445ft 122kts
01-Oct-20 13:42 43.584200 -116.288289 293 4389ft 121kts
01-Oct-20 13:43 43.597432 -116.331053 293 5284ft 121kts
01-Oct-20 13:44 43.595951 -116.371131 192 6192ft 125kts
01-Oct-20 13:45 43.566048 -116.347764 143 7004ft 132kts
01-Oct-20 13:46 43.536279 -116.316880 143 7000ft 133kts
01-Oct-20 13:47 43.515683 -116.275684 113 7000ft 133kts
01-Oct-20 13:48 43.501043 -116.228342 113 7000ft 133kts
01-Oct-20 13:49 43.486452 -116.181095 113 7000ft 134kts
01-Oct-20 13:50 43.471878 -116.133878 113 7000ft 134kts
01-Oct-20 13:51 43.457271 -116.086532 113 7000ft 134kts
01-Oct-20 13:52 43.442703 -116.039291 112 7000ft 134kts
01-Oct-20 13:53 43.432631 -115.991355 60 6998ft 133kts
01-Oct-20 13:54 43.463058 -115.969485 14 6993ft 114kts
01-Oct-20 13:55 43.486473 -115.993132 296 6659ft 113kts
01-Oct-20 13:56 43.499387 -116.030393 295 6108ft 111kts
01-Oct-20 13:57 43.512870 -116.069547 295 5253ft 114kts
01-Oct-20 13:58 43.526389 -116.108888 295 4407ft 109kts
01-Oct-20 13:59 43.539020 -116.145868 294 3799ft 103kts
01-Oct-20 14:00 43.551232 -116.181492 295 3243ft 101kts
01-Oct-20 14:01 43.562239 -116.213556 295 2854ft 52kts
01-Oct-20 14:02 43.565237 -116.224004 207 2843ft 13kts
01-Oct-20 14:03 43.563446 -116.227168 296 2839ft 18kts
01-Oct-20 14:04 43.564551 -116.234433 234 2827ft 16kts
01-Oct-20 14:05 43.564380 -116.234784 247 2826ft 0kts
01-Oct-20 14:06 43.564380 -116.234784 247 2826ft 0kts

Navigation Log

Ident Type
Flight plan parsing failed, navigation log unavailable